Time;durP1;ratioP1;P1;durP2;ratioP2;P2;SDS_P1;SDS_P2;PMS_P1;PMS_P2;Temp;Humidity;BMP_temperature;BMP_pressure;BME280_temperature;BME280_humidity;BME280_pressure;Samples;Min_cycle;Max_cycle;Signal;HPM_P1;HPM_P2
2021/12/16 00:01:47;;;;;;;5.93;2.38;;;;;;;14.66;74.47;103047.88;7395513;19;20475;-67
2021/12/16 00:07:27;;;;;;;7.53;2.55;;;;;;;14.66;73.12;103042.56;7395606;19;20496;-67
2021/12/16 00:10:19;;;;;;;7.50;3.25;;;;;;;14.69;73.34;103044.97;7397315;19;20511;-67
2021/12/16 00:33:18;;;;;;;10.50;4.20;;;;;;;14.66;72.25;103063.78;7392751;19;20243;-68
2021/12/16 00:35:50;;;;;;;6.15;2.15;;;;;;;14.63;72.43;103056.06;7394341;19;20028;-66
2021/12/16 00:38:18;;;;;;;6.47;2.50;;;;;;;14.60;72.78;103051.03;7389388;19;20365;-67
2021/12/16 00:41:00;;;;;;;6.63;2.50;;;;;;;14.59;72.79;103065.22;7391994;19;20018;-67
2021/12/16 00:43:50;;;;;;;7.85;2.35;;;;;;;14.58;72.90;103052.13;7392866;19;20019;-67
2021/12/16 00:50:06;;;;;;;8.90;5.63;;;;;;;14.62;73.77;103059.69;7396009;19;20130;-67
2021/12/16 00:54:58;;;;;;;6.68;2.42;;;;;;;14.60;73.24;103052.81;7391288;19;20035;-67
2021/12/16 00:57:25;;;;;;;7.78;2.70;;;;;;;14.60;73.08;103068.72;7393744;19;20485;-66
2021/12/16 00:59:53;;;;;;;6.68;2.45;;;;;;;14.59;72.94;103061.72;7395257;19;20429;-68
2021/12/16 01:05:55;;;;;;;5.53;2.25;;;;;;;14.57;72.99;103059.22;7392644;19;20038;-67
2021/12/16 01:34:03;;;;;;;5.82;2.22;;;;;;;14.51;72.62;103086.22;7391338;19;20035;-67
2021/12/16 01:37:05;;;;;;;5.90;3.65;;;;;;;14.55;74.42;103082.34;7391249;19;20031;-67
2021/12/16 01:42:31;;;;;;;5.82;2.05;;;;;;;14.54;73.58;103089.44;7391598;19;20713;-68
2021/12/16 01:50:19;;;;;;;5.25;2.40;;;;;;;14.54;73.32;103093.91;7392849;19;20499;-68
2021/12/16 01:56:06;;;;;;;5.30;1.95;;;;;;;14.54;73.19;103096.53;7390620;19;20339;-67
2021/12/16 01:58:34;;;;;;;4.85;2.88;;;;;;;14.53;73.18;103106.28;7391004;19;20431;-67
2021/12/16 02:01:28;;;;;;;5.80;3.15;;;;;;;14.55;73.05;103107.03;7389511;19;20595;-68
2021/12/16 02:04:02;;;;;;;7.30;2.40;;;;;;;14.55;72.60;103101.72;7390778;19;20018;-66
2021/12/16 02:09:37;;;;;;;5.95;2.10;;;;;;;14.54;72.87;103115.94;7392128;19;20026;-65
2021/12/16 02:31:51;;;;;;;5.97;1.60;;;;;;;14.40;73.12;103115.34;7389327;19;20010;-66
2021/12/16 02:34:29;;;;;;;5.45;1.85;;;;;;;14.39;73.33;103126.91;7392057;19;20468;-67
2021/12/16 02:36:56;;;;;;;6.00;1.92;;;;;;;14.38;73.45;103135.81;7388216;19;20048;-67
2021/12/16 02:39:27;;;;;;;4.13;1.83;;;;;;;14.39;73.73;103129.56;7388584;19;20011;-65
2021/12/16 02:42:03;;;;;;;6.07;2.33;;;;;;;14.38;73.41;103127.84;7387616;19;20016;-67
2021/12/16 02:44:37;;;;;;;4.55;2.05;;;;;;;14.41;73.42;103120.53;7390049;19;20401;-66
2021/12/16 02:49:54;;;;;;;31.88;12.00;;;;;;;14.43;73.30;103123.88;7390884;19;20019;-68
2021/12/16 02:52:24;;;;;;;13.63;5.10;;;;;;;14.43;73.60;103125.69;7390518;19;20019;-67
2021/12/16 02:54:51;;;;;;;4.82;1.67;;;;;;;14.44;73.78;103127.38;7387820;19;20018;-68
2021/12/16 02:57:18;;;;;;;4.35;1.80;;;;;;;14.45;73.11;103121.97;7391506;19;20013;-69
2021/12/16 02:59:47;;;;;;;4.60;1.45;;;;;;;14.46;73.02;103117.53;7391689;19;20460;-67
2021/12/16 03:02:17;;;;;;;3.28;2.15;;;;;;;14.44;72.70;103114.97;7389423;19;20007;-67
2021/12/16 03:04:49;;;;;;;4.30;1.98;;;;;;;14.41;72.49;103119.69;7390296;19;20026;-67
2021/12/16 03:07:17;;;;;;;6.50;2.40;;;;;;;14.41;73.42;103117.03;7388684;19;20500;-66
2021/12/16 03:15:17;;;;;;;3.67;1.90;;;;;;;14.44;72.88;103114.13;7387585;19;20031;-68
2021/12/16 03:20:35;;;;;;;5.30;2.10;;;;;;;14.40;72.99;103118.84;7386512;19;20288;-67
2021/12/16 03:37:14;;;;;;;4.68;1.80;;;;;;;14.31;73.07;103111.59;7386770;19;20103;-66
2021/12/16 03:40:00;;;;;;;4.30;1.92;;;;;;;14.29;73.42;103108.22;7384225;19;20014;-66
2021/12/16 03:42:35;;;;;;;7.40;2.10;;;;;;;14.27;73.22;103112.81;7389218;19;20343;-68
2021/12/16 03:46:25;;;;;;;7.15;1.80;;;;;;;14.28;73.50;103109.16;7387819;19;20014;-66
2021/12/16 03:47:59;;;;;;;4.75;1.90;;;;;;;14.30;73.76;103101.13;7387834;19;20499;-66
2021/12/16 03:50:27;;;;;;;6.82;2.10;;;;;;;14.30;73.62;103101.97;7389171;19;20043;-68
2021/12/16 03:52:55;;;;;;;5.28;1.85;;;;;;;14.30;73.71;103111.72;7390556;19;20472;-66
2021/12/16 03:55:22;;;;;;;6.20;1.65;;;;;;;14.29;73.60;103107.38;7386366;19;20034;-68
2021/12/16 03:57:50;;;;;;;4.22;1.65;;;;;;;14.29;73.42;103112.66;7387053;19;20011;-68
2021/12/16 04:00:26;;;;;;;8.20;2.33;;;;;;;14.31;73.57;103110.75;7385305;19;20386;-67
2021/12/16 04:02:53;;;;;;;5.07;2.03;;;;;;;14.32;73.87;103113.28;7388784;19;20107;-68
2021/12/16 04:05:21;;;;;;;4.63;1.75;;;;;;;14.33;72.58;103116.75;7390042;19;20015;-68
2021/12/16 04:08:33;;;;;;;7.85;2.05;;;;;;;14.31;73.15;103114.25;7388702;19;20499;-68
2021/12/16 04:14:41;;;;;;;5.95;1.95;;;;;;;14.27;74.18;103123.41;7374908;19;20006;-66
2021/12/16 04:17:11;;;;;;;4.93;1.77;;;;;;;14.30;74.25;103122.31;7390035;19;20034;-67
2021/12/16 04:19:38;;;;;;;5.03;2.22;;;;;;;14.28;73.67;103127.72;7390823;19;20014;-68
2021/12/16 04:22:11;;;;;;;4.70;2.38;;;;;;;14.30;73.53;103130.25;7388181;19;20111;-68
2021/12/16 04:24:38;;;;;;;;;;;;;;;14.28;73.44;103125.06;7389380;19;20074;-67
2021/12/16 04:27:07;;;;;;;8.50;2.00;;;;;;;14.26;72.78;103139.41;7387966;19;19939;-68
2021/12/16 04:29:35;;;;;;;5.40;1.88;;;;;;;14.23;73.43;103135.16;7388018;19;20014;-68
2021/12/16 04:32:04;;;;;;;3.35;1.83;;;;;;;14.21;73.65;103139.75;7387494;19;20018;-67
2021/12/16 04:34:31;;;;;;;4.88;1.85;;;;;;;14.21;73.15;103138.91;7387162;19;20070;-66
2021/12/16 04:36:58;;;;;;;4.20;2.30;;;;;;;14.19;73.19;103132.88;7383088;19;20018;-67
2021/12/16 04:39:29;;;;;;;6.57;2.55;;;;;;;14.18;73.64;103137.34;7387390;19;20066;-67
2021/12/16 04:41:57;;;;;;;6.05;2.30;;;;;;;14.20;73.62;103142.53;7384625;19;20071;-67
2021/12/16 04:44:26;;;;;;;5.97;2.25;;;;;;;14.21;73.79;103146.84;7382595;19;20035;-67
2021/12/16 04:46:55;;;;;;;5.20;1.95;;;;;;;14.23;73.09;103151.06;7387842;19;20021;-68
2021/12/16 04:49:23;;;;;;;6.15;2.00;;;;;;;14.23;73.18;103152.84;7382633;19;20093;-69
2021/12/16 04:51:55;;;;;;;5.03;1.65;;;;;;;14.26;73.40;103147.34;7386104;19;20027;-68
2021/12/16 04:54:24;;;;;;;4.07;1.90;;;;;;;14.23;73.06;103147.56;7388951;19;20020;-67
2021/12/16 04:56:54;;;;;;;6.28;1.80;;;;;;;14.21;72.76;103138.91;7386809;19;20233;-66
2021/12/16 04:59:22;;;;;;;4.70;2.10;;;;;;;14.21;73.22;103141.56;7388123;19;20032;-67
2021/12/16 05:01:57;;;;;;;5.65;1.90;;;;;;;14.22;73.04;103149.38;7386292;19;20840;-67
2021/12/16 05:04:25;;;;;;;4.45;1.90;;;;;;;14.23;73.00;103151.06;7386023;19;20178;-67
2021/12/16 05:06:55;;;;;;;5.93;2.00;;;;;;;14.21;73.09;103150.34;7382246;19;20002;-66
2021/12/16 05:11:55;;;;;;;7.63;3.92;;;;;;;14.18;73.71;103145.28;7383957;19;20094;-66
2021/12/16 05:14:26;;;;;;;6.25;2.05;;;;;;;14.16;73.33;103155.16;7384159;19;20011;-67
2021/12/16 05:16:53;;;;;;;4.90;2.00;;;;;;;14.14;73.38;103157.06;7382919;19;20010;-69
2021/12/16 05:19:21;;;;;;;6.47;2.20;;;;;;;14.14;73.50;103159.72;7382320;19;20010;-66
2021/12/16 05:21:56;;;;;;;4.40;1.60;;;;;;;14.12;73.50;103156.34;7387989;19;20011;-65
2021/12/16 05:26:57;;;;;;;6.70;1.98;;;;;;;14.14;73.36;103154.44;7385925;19;20533;-66
2021/12/16 05:29:25;;;;;;;9.52;1.75;;;;;;;14.14;73.65;103159.72;7384031;19;20107;-66
2021/12/16 05:31:53;;;;;;;6.35;2.08;;;;;;;14.17;73.42;103159.47;7387722;19;20010;-68
2021/12/16 05:34:22;;;;;;;5.32;1.88;;;;;;;14.19;73.50;103172.59;7384022;19;20014;-68
2021/12/16 05:36:49;;;;;;;4.15;1.88;;;;;;;14.17;73.15;103166.59;7382367;19;20523;-68
2021/12/16 05:39:18;;;;;;;4.90;1.95;;;;;;;14.16;73.20;103178.16;7388319;19;20504;-67
2021/12/16 05:41:46;;;;;;;4.15;1.98;;;;;;;14.15;72.39;103172.00;7386422;19;20078;-68
2021/12/16 05:44:15;;;;;;;9.30;2.47;;;;;;;14.14;72.67;103173.81;7382049;19;20463;-66
2021/12/16 05:46:43;;;;;;;12.63;2.50;;;;;;;14.13;72.87;103180.06;7385512;19;20105;-67
2021/12/16 05:49:13;;;;;;;4.70;1.83;;;;;;;14.13;73.47;103177.41;7382012;19;20024;-67
2021/12/16 05:51:43;;;;;;;6.80;2.40;;;;;;;14.10;72.96;103177.66;7387449;19;20029;-67
2021/12/16 05:54:12;;;;;;;5.82;1.73;;;;;;;14.10;73.24;103177.66;7386075;19;20438;-69
2021/12/16 05:56:39;;;;;;;7.55;2.47;;;;;;;14.11;73.55;103183.78;7385746;19;20015;-67
2021/12/16 05:59:08;;;;;;;5.93;1.90;;;;;;;14.11;73.88;103184.66;7382495;19;20536;-65
2021/12/16 06:01:39;;;;;;;4.75;1.98;;;;;;;14.12;73.60;103194.25;7382079;19;20014;-66
2021/12/16 06:04:07;;;;;;;9.07;2.10;;;;;;;14.13;73.53;103201.25;7382063;19;20082;-67
2021/12/16 06:06:35;;;;;;;6.00;1.80;;;;;;;14.12;73.31;103196.06;7382265;19;20037;-67
2021/12/16 06:09:04;;;;;;;3.65;1.63;;;;;;;14.10;73.21;103198.84;7383306;19;20088;-67
2021/12/16 06:11:33;;;;;;;6.20;2.15;;;;;;;14.09;73.57;103202.44;7384400;19;20022;-68
2021/12/16 06:26:51;;;;;;;6.80;2.90;;;;;;;14.06;73.42;103207.97;7380781;19;20020;-67
2021/12/16 06:29:19;;;;;;;8.00;2.50;;;;;;;14.06;73.90;103213.28;7381907;19;20014;-66
2021/12/16 06:31:46;;;;;;;7.13;2.67;;;;;;;14.05;73.37;103216.03;7381968;19;20548;-67
2021/12/16 06:34:13;;;;;;;9.68;3.10;;;;;;;14.04;73.51;103224.91;7383346;19;20003;-68
2021/12/16 06:36:41;;;;;;;10.77;4.47;;;;;;;14.04;73.49;103225.78;7378793;19;20084;-67
2021/12/16 06:39:08;;;;;;;7.88;3.30;;;;;;;14.01;73.39;103231.31;7384331;19;20031;-69
2021/12/16 06:41:37;;;;;;;11.85;3.88;;;;;;;14.00;73.43;103231.41;7386471;19;20289;-66
2021/12/16 06:44:14;;;;;;;8.82;3.53;;;;;;;14.00;73.46;103234.91;7382709;19;20027;-66
2021/12/16 06:46:44;;;;;;;13.90;3.65;;;;;;;14.01;73.83;103236.59;7384725;19;20015;-66
2021/12/16 06:49:14;;;;;;;7.65;3.08;;;;;;;14.00;73.85;103234.91;7387473;19;20026;-67
2021/12/16 06:54:25;;;;;;;8.50;3.10;;;;;;;14.02;73.64;103237.41;7386961;19;20625;-67
2021/12/16 06:57:04;;;;;;;7.28;3.22;;;;;;;14.01;73.78;103241.91;7379624;19;20013;-68
2021/12/16 06:59:40;;;;;;;9.13;3.60;;;;;;;14.04;74.21;103239.00;7382892;19;20006;-67
2021/12/16 07:04:57;;;;;;;8.20;3.00;;;;;;;14.01;74.34;103259.59;7380849;19;20086;-66
2021/12/16 07:07:24;;;;;;;6.65;2.80;;;;;;;14.00;73.78;103253.44;7382107;19;20026;-68
2021/12/16 07:09:51;;;;;;;10.63;3.88;;;;;;;14.01;73.74;103255.13;7379810;19;20066;-67
2021/12/16 07:12:25;;;;;;;10.48;2.97;;;;;;;14.02;74.28;103251.50;7380087;19;20306;-69
2021/12/16 07:14:52;;;;;;;5.40;2.35;;;;;;;14.04;73.86;103259.34;7379884;19;20006;-68
2021/12/16 07:17:19;;;;;;;10.00;4.07;;;;;;;14.02;73.28;103261.25;7382689;19;20070;-66
2021/12/16 07:19:47;;;;;;;6.65;3.05;;;;;;;14.03;73.56;103258.50;7381724;19;20018;-66
2021/12/16 07:22:14;;;;;;;7.05;3.45;;;;;;;14.03;73.43;103253.19;7380898;19;20021;-67
2021/12/16 07:24:41;;;;;;;5.80;2.83;;;;;;;14.03;73.55;103263.78;7381756;19;20031;-66
2021/12/16 07:27:09;;;;;;;5.53;2.22;;;;;;;14.04;73.38;103262.00;7383272;19;20030;-65
2021/12/16 07:29:38;;;;;;;5.43;2.40;;;;;;;14.06;72.99;103271.53;7379410;19;20015;-66
2021/12/16 07:32:05;;;;;;;6.80;2.15;;;;;;;14.09;73.15;103273.06;7379835;19;20014;-68
2021/12/16 07:34:34;;;;;;;7.05;2.15;;;;;;;14.08;73.48;103274.03;7380045;19;20025;-69
2021/12/16 07:37:04;;;;;;;8.25;2.60;;;;;;;14.06;73.28;103273.31;7379034;19;20070;-67
2021/12/16 07:39:38;;;;;;;6.00;2.63;;;;;;;14.06;73.23;103278.63;7384222;19;20018;-67
2021/12/16 07:42:08;;;;;;;6.68;3.28;;;;;;;14.05;73.47;103285.72;7386786;19;20006;-67
2021/12/16 07:44:35;;;;;;;4.75;2.13;;;;;;;14.06;73.49;103287.41;7383695;19;20113;-68
2021/12/16 07:47:07;;;;;;;5.30;2.20;;;;;;;14.05;73.79;103285.72;7386175;19;20014;-67
2021/12/16 07:49:40;;;;;;;4.80;2.35;;;;;;;14.05;73.30;103284.88;7387117;19;20021;-67
2021/12/16 07:52:12;;;;;;;8.27;2.55;;;;;;;14.03;74.02;103282.31;7391421;19;20519;-68
2021/12/16 07:54:43;;;;;;;9.50;3.00;;;;;;;14.04;74.36;103285.81;7390484;19;20043;-66
2021/12/16 07:57:14;;;;;;;12.60;2.95;;;;;;;14.06;73.83;103291.84;7386041;19;20010;-66
2021/12/16 07:59:41;;;;;;;5.63;2.58;;;;;;;14.06;73.26;103300.63;7390636;19;20116;-67
2021/12/16 08:02:11;;;;;;;5.95;2.03;;;;;;;14.05;73.17;103298.94;7393723;19;20039;-67
2021/12/16 08:04:43;;;;;;;7.10;2.42;;;;;;;14.07;73.12;103307.59;7391213;19;20011;-67
2021/12/16 08:07:14;;;;;;;6.38;2.55;;;;;;;14.07;73.28;103297.00;7388461;19;20351;-66
2021/12/16 08:09:42;;;;;;;6.55;3.00;;;;;;;14.10;73.38;103314.47;7390402;19;20094;-67
2021/12/16 08:12:12;;;;;;;6.05;2.70;;;;;;;14.10;73.58;103307.38;7388286;19;20031;-68
2021/12/16 08:14:42;;;;;;;8.27;2.40;;;;;;;14.09;73.09;103316.28;7387405;19;20006;-66
2021/12/16 08:17:10;;;;;;;7.03;2.90;;;;;;;14.10;73.23;103314.47;7387296;19;20018;-67
2021/12/16 08:19:37;;;;;;;7.53;3.05;;;;;;;14.11;73.26;103319.69;7390461;19;20014;-69
2021/12/16 08:22:06;;;;;;;9.18;2.97;;;;;;;14.11;72.79;103330.28;7392490;19;20022;-67
2021/12/16 08:24:34;;;;;;;6.75;2.97;;;;;;;14.12;72.68;103326.63;7387676;19;20007;-66
2021/12/16 08:27:07;;;;;;;8.95;3.63;;;;;;;14.13;72.96;103322.19;7386864;19;20438;-69
2021/12/16 08:29:34;;;;;;;8.50;2.47;;;;;;;14.14;72.79;103324.72;7389158;19;20003;-67
2021/12/16 08:32:02;;;;;;;8.60;2.67;;;;;;;14.16;72.49;103329.06;7390093;19;20011;-66
2021/12/16 08:34:32;;;;;;;9.43;3.90;;;;;;;14.17;73.11;103330.78;7387936;19;20759;-67
2021/12/16 08:37:00;;;;;;;10.40;3.03;;;;;;;14.17;72.97;103334.22;7383678;19;20130;-67
2021/12/16 08:39:27;;;;;;;8.82;2.58;;;;;;;14.19;72.80;103342.06;7384595;19;20019;-69
2021/12/16 08:41:57;;;;;;;8.20;3.03;;;;;;;14.19;72.95;103334.97;7388580;19;20539;-67
2021/12/16 08:44:25;;;;;;;7.72;2.97;;;;;;;14.19;72.92;103340.28;7387414;19;20018;-66
2021/12/16 08:46:57;;;;;;;11.95;3.17;;;;;;;14.18;72.41;103345.69;7388756;19;20014;-67
2021/12/16 08:49:25;;;;;;;10.40;3.08;;;;;;;14.16;72.56;103340.50;7386200;19;20519;-68
2021/12/16 08:51:56;;;;;;;7.53;2.95;;;;;;;14.18;72.51;103345.69;7388575;19;20002;-67
2021/12/16 08:54:24;;;;;;;8.10;2.65;;;;;;;14.19;72.62;103350.88;7387805;19;20615;-67
2021/12/16 08:56:51;;;;;;;7.68;2.67;;;;;;;14.19;72.41;103356.16;7383704;19;20019;-66
2021/12/16 08:59:21;;;;;;;7.70;2.78;;;;;;;14.19;72.71;103350.88;7386465;19;20038;-66
2021/12/16 09:01:52;;;;;;;7.07;2.70;;;;;;;14.19;73.01;103352.66;7385534;19;20006;-65
2021/12/16 09:04:22;;;;;;;7.32;2.92;;;;;;;14.21;72.98;103356.91;7385796;19;20209;-67
2021/12/16 09:06:54;;;;;;;6.53;2.40;;;;;;;14.22;72.89;103360.41;7387160;19;20308;-70
2021/12/16 09:09:31;;;;;;;8.15;3.83;;;;;;;14.22;73.40;103371.81;7387957;19;20086;-68
2021/12/16 09:12:09;;;;;;;8.10;2.90;;;;;;;14.23;73.24;103370.00;7384059;19;20571;-66
2021/12/16 09:14:39;;;;;;;8.63;3.20;;;;;;;14.20;73.12;103373.75;7384443;19;20154;-67
2021/12/16 09:17:10;;;;;;;10.90;3.20;;;;;;;14.22;73.17;103387.69;7387351;19;20042;-67
2021/12/16 09:19:50;;;;;;;8.02;3.75;;;;;;;14.25;73.08;103381.34;7384242;19;20031;-67
2021/12/16 09:22:19;;;;;;;7.47;2.78;;;;;;;14.23;73.41;103381.47;7385830;19;20129;-67
2021/12/16 09:24:48;;;;;;;8.23;2.58;;;;;;;14.25;73.32;103384.00;7392750;19;20086;-66
2021/12/16 09:27:17;;;;;;;6.43;2.90;;;;;;;14.26;73.42;103383.03;7386362;19;20082;-66
2021/12/16 09:29:46;;;;;;;8.20;3.42;;;;;;;14.24;72.84;103396.38;7385651;19;20018;-68
2021/12/16 09:32:14;;;;;;;8.50;3.00;;;;;;;14.26;72.88;103385.69;7387157;19;20372;-67
2021/12/16 09:34:45;;;;;;;12.30;2.90;;;;;;;14.26;72.17;103391.00;7385458;19;20130;-67
2021/12/16 09:37:12;;;;;;;6.25;2.53;;;;;;;14.25;71.16;103392.78;7384409;19;20026;-68
2021/12/16 09:39:40;;;;;;;6.57;2.22;;;;;;;14.27;70.78;103390.03;7383236;19;20641;-68
2021/12/16 09:42:09;;;;;;;6.82;1.98;;;;;;;14.28;69.42;103392.56;7383213;19;20086;-67
2021/12/16 09:44:38;;;;;;;6.97;1.30;;;;;;;14.27;69.29;103392.69;7386948;19;20413;-68
2021/12/16 09:47:11;;;;;;;4.68;1.88;;;;;;;14.28;69.73;103389.06;7387606;19;20801;-67
2021/12/16 09:49:39;;;;;;;3.53;1.60;;;;;;;14.30;69.88;103392.44;7351982;19;20014;-67
2021/12/16 09:52:10;;;;;;;4.72;1.48;;;;;;;14.31;68.79;103399.44;7385791;19;20479;-68
2021/12/16 09:54:39;;;;;;;4.82;1.42;;;;;;;14.29;68.51;103394.25;7386147;19;20583;-67
2021/12/16 09:57:07;;;;;;;4.63;1.42;;;;;;;14.29;68.64;103396.91;7383693;19;20015;-68
2021/12/16 09:59:36;;;;;;;7.32;1.85;;;;;;;14.30;68.27;103403.88;7386364;19;20178;-66
2021/12/16 10:02:18;;;;;;;5.13;2.53;;;;;;;14.30;68.37;103418.94;7383546;19;20571;-67
2021/12/16 10:04:47;;;;;;;3.85;1.77;;;;;;;14.30;68.52;103417.13;7386460;19;20016;-71
2021/12/16 10:07:19;;;;;;;4.88;1.80;;;;;;;14.30;68.72;103417.13;7387780;19;20368;-67
2021/12/16 10:09:49;;;;;;;5.33;1.93;;;;;;;14.30;68.79;103422.44;7384375;19;20027;-68
2021/12/16 10:12:21;;;;;;;5.65;2.20;;;;;;;14.31;68.54;103428.56;7385136;19;20038;-67
2021/12/16 10:19:53;;;;;;;6.85;2.30;;;;;;;14.35;69.53;103432.69;7383537;19;20006;-66
2021/12/16 10:22:24;;;;;;;7.40;2.22;;;;;;;14.36;69.53;103431.72;7385101;19;20106;-67
2021/12/16 10:24:55;;;;;;;7.68;2.20;;;;;;;14.37;69.62;103431.66;7386352;19;20011;-69
2021/12/16 10:27:26;;;;;;;6.03;2.20;;;;;;;14.39;69.48;103434.19;7386441;19;20006;-67
2021/12/16 10:30:01;;;;;;;5.40;2.50;;;;;;;14.39;69.29;103440.31;7383774;19;20034;-68
2021/12/16 10:32:35;;;;;;;7.25;2.05;;;;;;;14.36;69.05;103432.63;7384419;19;20027;-67
2021/12/16 10:35:09;;;;;;;4.25;2.17;;;;;;;14.36;70.04;103437.91;7386520;19;20091;-68
2021/12/16 10:37:43;;;;;;;5.88;2.38;;;;;;;14.36;69.43;103434.38;7380246;19;20018;-67
2021/12/16 10:40:16;;;;;;;7.55;2.65;;;;;;;14.37;68.97;103436.13;7381966;19;20018;-68
2021/12/16 10:42:45;;;;;;;6.95;2.55;;;;;;;14.41;68.98;103432.28;7382404;19;20013;-65
2021/12/16 10:45:19;;;;;;;6.13;2.08;;;;;;;14.41;68.92;103432.28;7381877;19;20012;-67
2021/12/16 10:47:52;;;;;;;3.45;1.33;;;;;;;14.41;67.78;103433.13;7386635;19;20046;-66
2021/12/16 10:50:19;;;;;;;4.57;1.70;;;;;;;14.41;67.61;103429.63;7383282;19;20482;-67
2021/12/16 10:52:47;;;;;;;4.40;1.75;;;;;;;14.42;67.32;103433.97;7384533;19;20010;-67
2021/12/16 10:55:14;;;;;;;4.22;1.90;;;;;;;14.43;67.55;103441.78;7380902;19;20515;-67
2021/12/16 10:57:41;;;;;;;4.15;1.00;;;;;;;14.39;67.13;103435.03;7380280;19;20014;-67
2021/12/16 11:00:13;;;;;;;4.72;1.05;;;;;;;14.39;66.68;103432.38;7385206;19;20031;-66
2021/12/16 11:02:41;;;;;;;2.35;0.80;;;;;;;14.37;66.56;103438.75;7382728;19;20019;-67
2021/12/16 11:05:15;;;;;;;3.38;1.48;;;;;;;14.37;66.94;103431.66;7385302;19;20007;-67
2021/12/16 11:07:44;;;;;;;6.60;2.65;;;;;;;14.40;66.75;103436.72;7380919;19;20070;-67
2021/12/16 11:10:14;;;;;;;7.53;2.70;;;;;;;14.42;67.06;103436.63;7386453;19;20081;-67
2021/12/16 11:12:46;;;;;;;3.63;1.17;;;;;;;14.40;66.67;103436.72;7381686;19;20046;-68
2021/12/16 11:15:18;;;;;;;5.45;1.55;;;;;;;14.42;66.34;103437.47;7381624;19;20118;-67
2021/12/16 11:17:50;;;;;;;6.57;1.55;;;;;;;14.42;67.07;103431.31;7364781;19;20015;-67
2021/12/16 11:20:20;;;;;;;5.22;1.15;;;;;;;14.44;67.61;103439.97;7373272;19;20018;-67
2021/12/16 11:22:54;;;;;;;3.65;1.00;;;;;;;14.42;66.90;103441.91;7382556;19;20094;-68
2021/12/16 11:25:30;;;;;;;4.80;1.25;;;;;;;14.40;66.65;103444.66;7391797;19;20775;-67
2021/12/16 11:28:04;;;;;;;5.93;1.13;;;;;;;14.40;66.50;103435.88;7390372;19;20110;-67
2021/12/16 11:30:36;;;;;;;4.10;1.20;;;;;;;14.39;67.24;103437.69;7391734;19;20018;-69
2021/12/16 11:33:12;;;;;;;2.35;0.93;;;;;;;14.41;67.42;103442.88;7391034;19;20048;-67
2021/12/16 11:35:43;;;;;;;5.25;1.20;;;;;;;14.39;67.08;103440.31;7393330;19;20679;-69
2021/12/16 11:38:14;;;;;;;4.13;1.55;;;;;;;14.39;66.92;103440.31;7391224;19;20014;-68
2021/12/16 11:40:48;;;;;;;3.55;1.40;;;;;;;14.41;66.89;103440.22;7387659;19;20010;-67
2021/12/16 11:43:15;;;;;;;6.85;1.17;;;;;;;14.42;66.32;103432.16;7389896;19;20075;-67
2021/12/16 11:45:43;;;;;;;6.93;1.63;;;;;;;14.43;67.16;103439.13;7392554;19;20177;-66
2021/12/16 11:48:28;;;;;;;7.55;1.52;;;;;;;14.40;66.94;103442.03;7390605;19;20066;-67
2021/12/16 11:51:05;;;;;;;3.83;1.30;;;;;;;14.38;67.19;103441.28;7390164;19;20102;-66
2021/12/16 11:53:42;;;;;;;5.55;1.23;;;;;;;14.37;66.91;103444.06;7392546;19;20014;-66
2021/12/16 11:56:11;;;;;;;5.70;1.60;;;;;;;14.38;66.85;103451.03;7391366;19;20034;-66
2021/12/16 11:58:42;;;;;;;3.70;1.48;;;;;;;14.38;66.90;103448.38;7390542;19;20475;-67
2021/12/16 12:01:13;;;;;;;5.53;1.67;;;;;;;14.37;65.99;103450.22;7389634;19;20014;-67
2021/12/16 12:03:40;;;;;;;5.22;1.13;;;;;;;14.36;65.36;103453.81;7388036;19;20235;-67
2021/12/16 12:06:20;;;;;;;4.65;1.27;;;;;;;14.35;65.89;103456.53;7390632;19;20018;-68
2021/12/16 12:08:49;;;;;;;3.88;0.80;;;;;;;14.35;65.57;103448.56;7387775;19;20011;-67
2021/12/16 12:11:22;;;;;;;1.50;0.60;;;;;;;14.34;64.24;103454.81;7389207;19;20276;-68
2021/12/16 12:13:56;;;;;;;2.67;0.88;;;;;;;14.29;65.11;103449.03;7392098;19;20027;-68
2021/12/16 12:16:29;;;;;;;3.63;0.90;;;;;;;14.25;65.31;103445.75;7390860;19;20463;-68
2021/12/16 12:19:00;;;;;;;2.63;0.90;;;;;;;14.24;65.48;103446.72;7387827;19;20007;-67
2021/12/16 12:21:31;;;;;;;1.42;0.90;;;;;;;14.25;65.59;103451.06;7386977;19;20480;-67
2021/12/16 12:24:04;;;;;;;5.35;0.85;;;;;;;14.26;65.76;103446.59;7390070;19;20022;-67
2021/12/16 12:26:35;;;;;;;1.63;0.75;;;;;;;14.28;64.98;103440.22;7389328;19;20066;-69
2021/12/16 12:29:10;;;;;;;2.65;0.65;;;;;;;14.30;65.04;103443.63;7388657;19;20015;-67
2021/12/16 12:31:45;;;;;;;4.93;0.60;;;;;;;14.26;64.87;103438.66;7389772;19;20052;-67
2021/12/16 12:34:13;;;;;;;3.95;1.33;;;;;;;14.27;66.62;103440.38;7390120;19;20549;-66
2021/12/16 12:36:41;;;;;;;3.13;0.98;;;;;;;14.29;66.74;103438.44;7391245;19;20027;-66
2021/12/16 12:39:15;;;;;;;4.50;1.40;;;;;;;14.31;66.21;103442.66;7387985;19;20030;-68
2021/12/16 12:41:45;;;;;;;3.60;1.08;;;;;;;14.32;67.17;103444.38;7365639;19;20036;-67
2021/12/16 12:44:14;;;;;;;4.70;1.05;;;;;;;14.33;66.54;103439.88;7393907;19;20003;-68
2021/12/16 12:46:43;;;;;;;3.67;1.30;;;;;;;14.35;66.94;103435.34;7393387;19;20006;-66
2021/12/16 12:49:15;;;;;;;3.03;1.75;;;;;;;14.35;66.67;103433.53;7392307;19;20039;-69
2021/12/16 12:51:46;;;;;;;3.85;1.10;;;;;;;14.37;65.91;103447.56;7396227;19;20511;-67
2021/12/16 12:54:19;;;;;;;2.72;0.82;;;;;;;14.39;66.12;103434.19;7391164;19;20436;-66
2021/12/16 12:56:46;;;;;;;;;;;;;;;14.40;66.55;103438.53;7388189;19;20014;-67
2021/12/16 12:59:16;;;;;;;3.05;0.80;;;;;;;14.39;66.87;103431.53;7388186;19;19950;-67
2021/12/16 13:01:49;;;;;;;3.15;0.88;;;;;;;14.38;65.10;103435.13;7389805;19;20082;-66
2021/12/16 13:04:24;;;;;;;14.00;4.45;;;;;;;14.39;66.40;103434.19;7387481;19;20014;-67
2021/12/16 13:06:57;;;;;;;4.50;1.40;;;;;;;14.39;66.15;103436.81;7391444;19;20464;-67
2021/12/16 13:09:29;;;;;;;4.32;1.55;;;;;;;14.40;66.45;103443.81;7390947;19;20482;-65
2021/12/16 13:11:57;;;;;;;6.90;2.88;;;;;;;14.41;66.32;103440.22;7388356;19;20101;-68
2021/12/16 13:14:42;;;;;;;5.25;1.27;;;;;;;14.40;65.38;103433.22;7389510;19;20024;-67
2021/12/16 13:27:31;;;;;;;3.88;1.20;;;;;;;14.41;67.11;103440.22;7388090;19;20413;-69
2021/12/16 13:30:16;;;;;;;;;;;;;;;14.41;66.29;103435.78;7390646;19;20035;-66
2021/12/16 13:33:14;;;;;;;3.45;1.00;;;;;;;14.40;65.73;103435.88;7391736;19;19910;-67
2021/12/16 13:38:16;;;;;;;;;;;;;;;14.41;64.45;103440.22;7390166;19;20155;-67
2021/12/16 13:44:38;;;;;;;3.33;0.70;;;;;;;14.31;64.86;103425.94;7389930;19;20015;-69
2021/12/16 13:47:16;;;;;;;3.55;0.63;;;;;;;14.31;64.88;103433.88;7387647;19;20010;-67
2021/12/16 14:10:29;;;;;;;4.57;1.90;;;;;;;14.33;65.69;103437.25;7388143;19;20158;-67
2021/12/16 14:14:06;;;;;;;6.70;1.48;;;;;;;14.32;65.31;103438.22;7385122;19;20014;-66
2021/12/16 14:23:02;;;;;;;4.18;1.30;;;;;;;14.30;65.30;103440.13;7391685;19;19915;-68
2021/12/16 14:24:22;;;;;;;3.13;1.17;;;;;;;14.27;65.41;103435.91;7382097;19;20533;-67
2021/12/16 14:42:20;;;;;;;5.57;1.73;;;;;;;14.28;65.14;103444.69;7384005;19;20357;-68
2021/12/16 14:49:51;;;;;;;3.60;1.30;;;;;;;14.29;65.96;103449.03;7384597;19;20029;-68
2021/12/16 14:52:23;;;;;;;6.00;2.28;;;;;;;14.31;65.30;103444.47;7386343;19;20094;-67
2021/12/16 14:54:57;;;;;;;3.22;1.13;;;;;;;14.30;65.37;103442.78;7381821;19;20014;-68
2021/12/16 14:57:30;;;;;;;5.50;1.85;;;;;;;14.31;67.31;103445.31;7379312;19;20015;-69
2021/12/16 14:59:58;;;;;;;2.10;1.25;;;;;;;14.35;65.79;103449.44;7386350;19;20015;-68
2021/12/16 15:02:30;;;;;;;5.82;1.48;;;;;;;14.32;65.12;103448.81;7383040;19;20018;-66
2021/12/16 15:04:57;;;;;;;3.38;1.15;;;;;;;14.29;65.46;103454.31;7384602;19;20006;-67
2021/12/16 15:07:27;;;;;;;4.28;1.77;;;;;;;14.28;65.92;103461.41;7384527;19;20082;-66
2021/12/16 15:09:56;;;;;;;3.58;1.30;;;;;;;14.26;67.02;103455.41;7381276;19;20011;-68
2021/12/16 15:45:23;;;;;;;4.65;1.42;;;;;;;14.22;64.92;103467.16;7383338;19;20488;-67
2021/12/16 15:47:54;;;;;;;6.85;1.60;;;;;;;14.23;64.83;103478.59;7380891;19;20793;-67
2021/12/16 15:50:28;;;;;;;4.20;1.45;;;;;;;14.20;65.17;103473.53;7382332;19;20027;-67
2021/12/16 15:52:57;;;;;;;6.47;1.67;;;;;;;14.18;65.16;103488.66;7382277;19;20016;-66